Bettles Airport Bettles US
ICAO: PABT
IATA:
Category: Medium
Scheduled Services:

Elevation: 647 ft
TransAlt. 18000 ft.

Airport Communications:
ASOS:135.45
ANCHORAGE CNTR:124.6
CTAF:122.9
FAIRBANKS RDO:122.2
TWEB:116

PABT Zoom In..

Runways:

(A) RW 01 length 5190 ft width 150 ft
LOC 108.70 / hdg 12

(B) RW 19 length 5190 ft width 150 ft
LOC 108.70 / hdg 192

Location; PABT
Day. 31 / Time. 11.53 Zulu
* Altimeter: 29.78
* Temperature: 15° c. 59°f.
* Wind from: 040° Speed 09 kn with Gusts up to 17 kn.
Dewpoint: 02° c.
Visibility: 10 Statute Miles.
Clouds: Few 9000 ft.
Clouds: Scattered 11000 ft.

PABT 311153Z 04009G17KT 10SM FEW090 SCT110 15/02 A2978 RMK AO2 SLP090 T01500017 10211 20144 51002


Wind From 040°
Speed 09 kn.

 
 
jpsmedia worldairports.se 2020   terms of use